Tiempo atmosférico en la estación meteorológica de San Andrés y Sauces, Santa Cruz de Tenerife (362 m.)



Fecha
DESCASC
Temp. máxima en grados centígrados (hora)
DESCASC
Temp. mínima en grados centígrados (hora)
DESCASC
Temp. media en grados centígrados
DESCASC
Racha de viento máxima en m/sg (hora)
DESCASC
Velocidad máxima media en intervalos de 10 minutos(hora)
DESCASC
Precipitaciones diarias en mm
DESCASC
Precipitaciones de 00:00 a 06:00 en mm
DESCASC
Precipitaciones de 06:00 a 12:00 en mm
DESCASC
Precipitaciones de 12:00 a 18:00 en mm
DESCASC
Precipitaciones de 18:00 a 24:00 en mm
DESCASC
29-03-2020 19 (11:10) 11.6 (06:40) 15.3 6.11 (00:10) 4.17 (00:10) 0 0 0 0 0
28-03-2020 18.1 (11:40) 12.1 (03:20) 15.1 7.78 (01:40) 4.72 (01:30) 0 0 0 0 0
27-03-2020 17.5 (09:50) 11.9 (23:10) 14.7 11.67 (13:40) 8.33 (13:40) 9.2 0 0 9.2 0
26-03-2020 19.7 (12:40) 12.6 (00:00) 16.2 7.78 (16:10) 5 (17:20) 0 0 0 0 0
25-03-2020 17.8 (12:40) 12.9 (00:00) 15.3 6.67 (12:50) 4.44 (06:30) 0.8 0 0.2 0.4 0.2
24-03-2020 18 (13:40) 12.5 (00:00) 15.3 11.11 (14:10) 6.11 (15:50) 3.4 2 1.4 0 0
23-03-2020 16.5 (15:10) 11.5 (00:00) 14 16.67 (00:50) 8.33 (01:10) 12.4 8.6 2.8 0.8 0.2
22-03-2020 20.2 (13:00) 11.2 (04:10) 15.7 16.39 (22:40) 8.89 (22:40) 15 2 0 9.8 3.2
21-03-2020 16.3 (10:50) 12.7 (00:00) 14.5 8.89 (18:10) 5.28 (15:50) 0.4 0 0.2 0 0.2
20-03-2020 18.7 (14:00) 12.9 (00:00) 15.8 8.33 (14:30) 5.56 (14:30) 1.4 1.2 0 0.2 0
19-03-2020 18.1 (14:20) 13.7 (00:00) 15.9 10.83 (06:50) 6.11 (02:40) 2.2 0 0 0 2.2
18-03-2020 17.5 (12:10) 11.8 (00:00) 14.7 10.83 (19:50) 6.94 (19:50) 2 1.8 0.2 0 0
17-03-2020 16.4 (14:30) 11.7 (00:00) 14 9.17 (21:10) 5.28 (21:20) 7 1.2 0.4 3.8 1.6
16-03-2020 19.4 (13:00) 13.4 (00:00) 16.4 8.89 (23:59) 5 (17:40) 0 0 0 0 0
15-03-2020 17.2 (12:40) 12.1 (00:00) 14.7 8.89 (14:20) 5 (10:30) 7 3.8 2.6 0.6 0
14-03-2020 19.8 (13:10) 13.8 (00:00) 16.8 7.5 (13:40) 4.44 (13:50) 0 0 0 0 0
13-03-2020 18.3 (14:50) 14.6 (02:30) 16.4 7.22 (14:20) 4.72 (14:20) 0 0 0 0 0
12-03-2020 21.2 (14:20) 12.6 (00:00) 16.9 6.39 (14:30) 3.61 (15:10) 0 0 0 0 0
11-03-2020 22.2 (14:10) 13.8 (00:00) 18 6.39 (03:20) 4.17 (03:20) 0 0 0 0 0
10-03-2020 21 (13:50) 13.9 (00:00) 17.4 7.22 (15:20) 4.17 (02:10) 0 0 0 0 0
09-03-2020 20.3 (14:20) 13.7 (00:00) 17 6.94 (14:00) 4.17 (14:20) 0 0 0 0 0
08-03-2020 19.7 (13:00) 14.7 (00:00) 17.2 8.61 (14:20) 5.56 (13:20) 0 0 0 0 0
07-03-2020 19.9 (13:00) 13.9 (00:00) 16.9 10.83 (02:30) 6.39 (02:30) 0 0 0 0 0
06-03-2020 16.9 (14:10) 13.5 (00:00) 15.2 10.28 (04:50) 6.39 (01:30) 6 6 0 0 0
05-03-2020 19.9 (15:50) 15.1 (00:00) 17.5 8.33 (21:00) 4.72 (14:50) 0 0 0 0 0
04-03-2020 20.7 (15:10) 13.5 (05:50) 17.1 7.22 (12:50) 3.61 (02:00) 0 0 0 0 0
03-03-2020 20 (15:00) 14.1 (00:00) 17.1 7.78 (13:00) 4.44 (12:50) 0 0 0 0 0
02-03-2020 21.1 (14:30) 14.3 (00:00) 17.7 7.22 (00:50) 4.17 (21:00) 0 0 0 0 0
01-03-2020 20 (12:10) 12.9 (00:00) 16.4 6.67 (22:30) 3.61 (10:40) 0 0 0 0 0
29-02-2020 19.9 (13:50) 12.9 (00:00) 16.4 6.67 (13:00) 3.89 (15:00) 0 0 0 0 0

Gráficas

Temp. máximas Temp. mínimas Temp. medias Precipitaciones Rachas de viento máximas Velocidades máximas media en intervalos de 10 minutos

Datos horarios

Fecha y hora oficial Temperatura (ºC) Velocidad del viento (km/h) Dirección del viento Racha (km/h) Dirección de racha Precipitación (mm) Presión (hPa) Tendencia (hPa) Humedad (%)
2020-03-29 23:00:00 13.6 8 Sudoeste 12 Sudoeste 0 -- -- 88
2020-03-29 22:00:00 14.6 6 Oeste 10 Sudoeste 0 -- -- 85
2020-03-29 21:00:00 15.3 3 Sudoeste 9 Oeste 0 -- -- 85
2020-03-29 20:00:00 15.9 3 Sudeste 14 Nordeste 0 -- -- 82
2020-03-29 19:00:00 16.4 6 Este 13 Este 0 -- -- 80
2020-03-29 18:00:00 16.8 5 Este 14 Este 0 -- -- 78
2020-03-29 17:00:00 17.3 8 Este 17 Este 0 -- -- 76
2020-03-29 16:00:00 16.9 6 Este 17 Este 0 -- -- 75
2020-03-29 15:00:00 16.8 10 Este 17 Este 0 -- -- 76
2020-03-29 14:00:00 17 8 Este 17 Este 0 -- -- 72
2020-03-29 13:00:00 17.2 10 Este 17 Este 0 -- -- 75
2020-03-29 12:00:00 18.1 8 Este 18 Este 0 -- -- 70
2020-03-29 11:00:00 18.9 9 Este 17 Este 0 -- -- 65
2020-03-29 10:00:00 16.5 5 Este 13 Sudoeste 0 -- -- 66
2020-03-29 09:00:00 13.5 10 Sudoeste 16 Oeste 0 -- -- 71
2020-03-29 08:00:00 12.1 14 Sudoeste 17 Sudoeste 0 -- -- 74
2020-03-29 07:00:00 11.7 9 Sudoeste 17 Sudoeste 0 -- -- 76
2020-03-29 06:00:00 11.8 13 Sudoeste 17 Sudoeste 0 -- -- 77
2020-03-29 05:00:00 12.4 12 Sudoeste 17 Sudoeste 0 -- -- 77
2020-03-29 04:00:00 12.7 12 Sudoeste 17 Oeste 0 -- -- 76
2020-03-29 00:00:00 12.8 14 Sudoeste 18 Sudoeste 0 -- -- 75
2020-03-28 23:00:00 13 13 Sudoeste 18 Sudoeste 0 -- -- 78
2020-03-28 22:00:00 13.3 14 Sudoeste 19 Sudoeste 0 -- -- 79
2020-03-28 21:00:00 13.9 6 Sudoeste 10 Oeste 0 -- -- 83
2020-03-28 20:00:00 14.5 6 Sudoeste 10 Sudoeste 0 -- -- 81
2020-03-28 19:00:00 15.4 4 Sudoeste 12 Noroeste 0 -- -- 77
2020-03-28 18:00:00 15.6 8 Norte 18 Nordeste 0 -- -- 73
2020-03-28 17:00:00 16 7 Sudoeste 21 Norte 0 -- -- 75
2020-03-28 16:00:00 16.3 9 Nordeste 22 Nordeste 0 -- -- 73
2020-03-28 15:00:00 16.6 11 Nordeste 24 Nordeste 0 -- -- 71
2020-03-28 14:00:00 17 14 Nordeste 23 Nordeste 0 -- -- 70
2020-03-28 13:00:00 17.3 15 Nordeste 27 Norte 0 -- -- 68
2020-03-28 12:00:00 18.1 14 Nordeste 26 Norte 0 -- -- 65
2020-03-28 11:00:00 17.5 12 Norte 24 Norte 0 -- -- 64
2020-03-28 10:00:00 16.8 11 Norte 24 Norte 0 -- -- 68
2020-03-28 09:00:00 15.7 13 Norte 19 Norte 0 -- -- 67
2020-03-28 08:00:00 13.7 9 Oeste 22 Oeste 0 -- -- 68
2020-03-28 07:00:00 12.2 16 Oeste 26 Oeste 0 -- -- 71
2020-03-28 06:00:00 12.4 15 Oeste 26 Oeste 0 -- -- 78
2020-03-28 05:00:00 12.3 14 Oeste 26 Oeste 0 -- -- 76
2020-03-28 04:00:00 12.3 14 Oeste 27 Oeste 0 -- -- 75
2020-03-28 03:00:00 12.3 16 Oeste 26 Oeste 0 -- -- 75
2020-03-28 02:00:00 12.6 15 Noroeste 28 Noroeste 0 -- -- 70
2020-03-28 01:00:00 12.4 14 Oeste 25 Oeste 0 -- -- 71
2020-03-28 00:00:00 12.6 13 Oeste 25 Oeste 0 -- -- 72
2020-03-27 23:00:00 12 12 Oeste 25 Oeste 0 -- -- 72
2020-03-27 22:00:00 12.5 13 Oeste 28 Oeste 0 -- -- 70
2020-03-27 21:00:00 12.9 19 Sudoeste 33 Oeste 0 -- -- 66
2020-03-27 20:00:00 12.4 19 Oeste 36 Oeste 0 -- -- 67
2020-03-27 19:00:00 12.5 21 Oeste 35 Oeste 0 -- -- 72
2020-03-27 18:00:00 12.3 15 Noroeste 35 Norte 5.2 -- -- 95
2020-03-27 17:00:00 13.1 12 Norte 36 Norte 1.6 -- -- 92
2020-03-27 16:00:00 13.7 18 Norte 41 Noroeste 2.2 -- -- 92
2020-03-27 15:00:00 15.3 15 Noroeste 40 Norte 0.2 -- -- 85
2020-03-27 14:00:00 16.3 17 Norte 42 Norte 0 -- -- 72
2020-03-27 13:00:00 17 22 Norte 37 Norte 0 -- -- 69
2020-03-27 12:00:00 16.5 14 Norte 28 Norte 0 -- -- 72
2020-03-27 11:00:00 16.5 10 Norte 27 Norte 0 -- -- 74
2020-03-27 10:00:00 16.9 8 Oeste 25 Oeste 0 -- -- 70
2020-03-27 09:00:00 16.2 8 Noroeste 29 Oeste 0 -- -- 73
2020-03-27 08:00:00 15.4 8 Noroeste 29 Oeste 0 -- -- 63
2020-03-27 07:00:00 13.6 17 Oeste 28 Noroeste 0 -- -- 71
2020-03-27 06:00:00 13.6 14 Oeste 26 Noroeste 0 -- -- 72
2020-03-27 05:00:00 13.4 13 Oeste 27 Noroeste 0 -- -- 79
2020-03-27 04:00:00 13.6 17 Noroeste 27 Oeste 0 -- -- 82
2020-03-27 03:00:00 13 11 Oeste 18 Noroeste 0 -- -- 86
2020-03-27 02:00:00 13.1 3 Noroeste 13 Oeste 0 -- -- 84
2020-03-27 01:00:00 12.9 5 Oeste 12 Noroeste 0 -- -- 88
2020-03-27 00:00:00 13.2 6 Oeste 11 Oeste 0 -- -- 87
2020-03-26 23:00:00 13.7 5 Oeste 12 Noroeste 0 -- -- 83
2020-03-26 22:00:00 13.8 6 Noroeste 16 Noroeste 0 -- -- 84
2020-03-26 21:00:00 13.8 8 Noroeste 17 Norte 0 -- -- 80
2020-03-26 20:00:00 14.1 9 Noroeste 21 Norte 0 -- -- 78
2020-03-26 19:00:00 14.7 13 Norte 22 Norte 0 -- -- 78
2020-03-26 18:00:00 15.1 15 Norte 28 Norte 0 -- -- 77
2020-03-26 17:00:00 15.8 13 Norte 28 Norte 0 -- -- 77
2020-03-26 16:00:00 17.1 14 Nordeste 24 Nordeste 0 -- -- 72
2020-03-26 15:00:00 17.7 13 Nordeste 23 Norte 0 -- -- 70
2020-03-26 14:00:00 18.3 9 Nordeste 22 Este 0 -- -- 64
2020-03-26 13:00:00 19.1 13 Nordeste 21 Nordeste 0 -- -- 64
2020-03-26 12:00:00 19 12 Nordeste 22 Nordeste 0 -- -- 61
2020-03-26 11:00:00 18.5 11 Nordeste 19 Este 0 -- -- 69
2020-03-26 10:00:00 16.8 7 Nordeste 14 Nordeste 0 -- -- 70
2020-03-26 09:00:00 14.8 3 Nordeste 8 Sudoeste 0 -- -- 82
2020-03-26 08:00:00 13.5 5 Oeste 17 Sudoeste 0 -- -- 80
2020-03-26 07:00:00 12.7 9 Oeste 14 Oeste 0 -- -- 80
2020-03-26 06:00:00 13.1 8 Oeste 12 Oeste 0 -- -- 79
2020-03-26 05:00:00 13 8 Sudoeste 13 Sudoeste 0 -- -- 81
2020-03-26 04:00:00 13.2 11 Sudoeste 16 Sudoeste 0 -- -- 82
2020-03-26 03:00:00 13.1 6 Sudoeste 14 Sudoeste 0 -- -- 81
2020-03-26 02:00:00 13.2 10 Sudoeste 14 Sudoeste 0 -- -- 86
2020-03-26 01:00:00 13.2 10 Sudoeste 15 Sudoeste 0 -- -- 86
2020-03-26 00:00:00 13 12 Sudoeste 17 Sudoeste 0.2 -- -- 86
2020-03-25 23:00:00 13.2 12 Sudoeste 16 Sudoeste 0 -- -- 83
2020-03-25 22:00:00 13.2 11 Sudoeste 17 Sudoeste 0 -- -- 85
2020-03-25 21:00:00 13.5 10 Sudoeste 13 Sudoeste 0 -- -- 86
2020-03-25 20:00:00 13.5 10 Sudoeste 15 Sudoeste 0 -- -- 86
2020-03-25 19:00:00 14.2 6 Sudoeste 15 Nordeste 0 -- -- 87
2020-03-25 18:00:00 14.4 10 Nordeste 18 Nordeste 0 -- -- 89
2020-03-25 17:00:00 14.4 13 Nordeste 23 Este 0.4 -- -- 90
2020-03-25 16:00:00 15.5 14 Este 23 Este 0 -- -- 84
2020-03-25 15:00:00 16.6 14 Este 21 Este 0 -- -- 77
2020-03-25 14:00:00 17.2 13 Este 22 Este 0 -- -- 72
2020-03-25 13:00:00 17.1 15 Este 24 Este 0 -- -- 76
2020-03-25 12:00:00 17.6 11 Este 19 Este 0 -- -- 73
2020-03-25 11:00:00 16.7 6 Este 13 Este 0.2 -- -- 78
2020-03-25 10:00:00 15.5 5 Nordeste 10 Este 0 -- -- 76
2020-03-25 09:00:00 14.5 3 Nordeste 14 Sudoeste 0 -- -- 70
2020-03-25 08:00:00 13.4 10 Sudoeste 17 Sudoeste 0 -- -- 75
2020-03-25 07:00:00 13.2 12 Sudoeste 21 Sudoeste 0 -- -- 74
2020-03-25 06:00:00 13.2 13 Sudoeste 21 Sudoeste 0 -- -- 79
2020-03-25 05:00:00 13.5 10 Sudoeste 15 Sudoeste 0 -- -- 86
2020-03-25 04:00:00 13.6 7 Oeste 18 Oeste 0 -- -- 86
2020-03-25 03:00:00 13.4 10 Oeste 15 Oeste 0 -- -- 87
2020-03-25 02:00:00 13.4 7 Oeste 18 Oeste 0 -- -- 86
2020-03-25 01:00:00 14.2 7 Oeste 19 Oeste 0 -- -- 82
2020-03-25 00:00:00 14.3 12 Oeste 17 Oeste 0 -- -- 81
2020-03-24 23:00:00 14.2 10 Noroeste 27 Norte 0 -- -- 82
2020-03-24 22:00:00 14.5 9 Noroeste 22 Oeste 0 -- -- 80
2020-03-24 21:00:00 14.6 13 Oeste 22 Noroeste 0 -- -- 73
2020-03-24 20:00:00 14.4 13 Oeste 24 Oeste 0 -- -- 74
2020-03-24 19:00:00 15 11 Noroeste 31 Noroeste 0 -- -- 79
2020-03-24 18:00:00 15.8 20 Noroeste 33 Noroeste 0 -- -- 66
2020-03-24 17:00:00 16.9 13 Norte 31 Noroeste 0 -- -- 64
2020-03-24 16:00:00 17.2 18 Norte 35 Norte 0 -- -- 73
2020-03-24 15:00:00 17.9 16 Norte 40 Noroeste 0 -- -- 70
2020-03-24 14:00:00 18 18 Norte 35 Noroeste 0 -- -- 62
2020-03-24 13:00:00 17.5 16 Noroeste 34 Oeste 0 -- -- 65
2020-03-24 12:00:00 16.6 9 Noroeste 26 Oeste 0 -- -- 70
2020-03-24 11:00:00 15.3 13 Noroeste 25 Noroeste 0 -- -- 78
2020-03-24 10:00:00 14.5 15 Noroeste 30 Oeste 0 -- -- 82
2020-03-24 09:00:00 14.2 13 Oeste 35 Noroeste 0.2 -- -- 87
2020-03-24 08:00:00 13.3 14 Noroeste 24 Noroeste 1.2 -- -- 88
2020-03-24 07:00:00 13.1 16 Oeste 28 Oeste 0 -- -- 83
2020-03-24 06:00:00 12.5 11 Oeste 20 Oeste 0 -- -- 87
2020-03-24 05:00:00 13.1 8 Oeste 22 Norte 1.2 -- -- 92
2020-03-24 04:00:00 13.6 14 Norte 26 Norte 0.8 -- -- 91
2020-03-24 03:00:00 13.8 9 Noroeste 26 Noroeste 0 -- -- 79
2020-03-24 02:00:00 13.8 11 Noroeste 23 Oeste 0 -- -- 85
2020-03-24 01:00:00 13.9 8 Oeste 23 Oeste 0 -- -- 85
2020-03-24 00:00:00 14.2 12 Oeste 29 Oeste 0 -- -- 80
2020-03-23 23:00:00 14 13 Oeste 27 Noroeste 0 -- -- 82
2020-03-23 22:00:00 13.8 11 Noroeste 26 Oeste 0.2 -- -- 90
2020-03-23 21:00:00 14 16 Oeste 30 Oeste 0 -- -- 81
2020-03-23 20:00:00 13.8 18 Oeste 30 Oeste 0 -- -- 78
2020-03-23 19:00:00 14 15 Oeste 26 Noroeste 0 -- -- 83
2020-03-23 18:00:00 13.9 11 Noroeste 31 Norte 0 -- -- 88
2020-03-23 17:00:00 15.3 13 Noroeste 31 Norte 0 -- -- 78
2020-03-23 16:00:00 15.4 19 Norte 35 Norte 0 -- -- 78
2020-03-23 15:00:00 16.4 14 Norte 41 Norte 0 -- -- 74
2020-03-23 14:00:00 15.9 23 Norte 35 Noroeste 0.2 -- -- 76
2020-03-23 13:00:00 13.9 21 Norte 45 Norte 0.6 -- -- 89
2020-03-23 12:00:00 16 24 Norte 42 Oeste 0 -- -- 77
2020-03-23 11:00:00 15.6 18 Noroeste 38 Noroeste 0 -- -- 76
2020-03-23 10:00:00 14.9 19 Noroeste 39 Norte 2 -- -- 83
2020-03-23 09:00:00 14.6 19 Norte 39 Norte 0 -- -- 78
2020-03-23 08:00:00 13.3 20 Norte 45 Norte 0.4 -- -- 88
2020-03-23 07:00:00 12.9 19 Noroeste 50 Noroeste 0.4 -- -- 87
2020-03-23 06:00:00 13.4 22 Norte 50 Noroeste 0 -- -- 81
2020-03-23 05:00:00 13.1 20 Noroeste 46 Norte 0 -- -- 80
2020-03-23 04:00:00 12.6 23 Noroeste 48 Noroeste 0.6 -- -- 87
2020-03-23 03:00:00 12.7 20 Noroeste 59 Norte 0.2 -- -- 84
2020-03-23 02:00:00 12.5 23 Noroeste 56 Oeste 0 -- -- 90
2020-03-23 01:00:00 12 27 Noroeste 60 Noroeste 7.8 -- -- 88
2020-03-23 00:00:00 12.4 25 Noroeste 49 Noroeste 2 -- -- 88
2020-03-22 23:00:00 12.5 31 Noroeste 59 Oeste 0 -- -- 81
2020-03-22 22:00:00 13 25 Noroeste 57 Oeste 0.6 -- -- 88
2020-03-22 21:00:00 13.3 23 Noroeste 53 Noroeste 0.6 -- -- 85
2020-03-22 20:00:00 13.6 21 Noroeste 45 Noroeste 0 -- -- 82
2020-03-22 19:00:00 13.7 30 Noroeste 57 Oeste 0 -- -- 79
2020-03-22 18:00:00 13.8 20 Noroeste 50 Oeste 0 -- -- 78
2020-03-22 17:00:00 14.3 21 Noroeste 51 Noroeste 0 -- -- 74
2020-03-22 16:00:00 13.7 22 Noroeste 45 Noroeste 1.6 -- -- 85
2020-03-22 15:00:00 13.6 14 Noroeste 41 Oeste 4 -- -- 86
2020-03-22 14:00:00 13.3 23 Norte 54 Norte 4.2 -- -- 92
2020-03-22 13:00:00 20.2 19 Norte 48 Noroeste 0 -- -- 50
2020-03-22 12:00:00 18.5 12 Noroeste 39 Norte 0 -- -- 58
2020-03-22 11:00:00 17.7 17 Noroeste 44 Noroeste 0 -- -- 59
2020-03-22 10:00:00 16 16 Noroeste 39 Noroeste 0 -- -- 61
2020-03-22 09:00:00 13.3 22 Oeste 38 Noroeste 0 -- -- 79
2020-03-22 08:00:00 13 21 Noroeste 37 Oeste 0 -- -- 74
2020-03-22 07:00:00 12.6 21 Oeste 37 Oeste 0 -- -- 74
2020-03-22 06:00:00 12.2 17 Oeste 33 Noroeste 0 -- -- 82
2020-03-22 05:00:00 11.8 16 Oeste 38 Noroeste 0.8 -- -- 86
2020-03-22 04:00:00 11.4 18 Noroeste 40 Norte 1.2 -- -- 93
2020-03-22 03:00:00 12.7 22 Noroeste 33 Oeste 0 -- -- 70
2020-03-22 02:00:00 12.2 16 Oeste 29 Oeste 0 -- -- 82
2020-03-22 01:00:00 13.3 17 Oeste 27 Oeste 0 -- -- 74
2020-03-22 00:00:00 13 14 Oeste 29 Noroeste 0.2 -- -- 78
2020-03-21 23:00:00 13.4 14 Oeste 30 Noroeste 0 -- -- 78
2020-03-21 22:00:00 13.5 14 Noroeste 26 Noroeste 0 -- -- 68
2020-03-21 21:00:00 13.6 12 Oeste 21 Noroeste 0 -- -- 68
2020-03-21 20:00:00 13.5 10 Oeste 27 Oeste 0 -- -- 69
2020-03-21 19:00:00 13.8 15 Norte 32 Norte 0 -- -- 68
2020-03-21 18:00:00 14.2 18 Norte 32 Norte 0 -- -- 65
2020-03-21 17:00:00 14.3 19 Norte 27 Norte 0 -- -- 70
2020-03-21 16:00:00 15 15 Norte 32 Nordeste 0 -- -- 69
2020-03-21 15:00:00 15.1 15 Norte 26 Norte 0 -- -- 67
2020-03-21 14:00:00 15.5 14 Norte 30 Norte 0 -- -- 64
2020-03-21 13:00:00 15.8 12 Nordeste 22 Nordeste 0 -- -- 63
2020-03-21 12:00:00 14.8 12 Norte 21 Norte 0.2 -- -- 70
2020-03-21 11:00:00 16.1 7 Este 17 Nordeste 0 -- -- 56
2020-03-21 10:00:00 14.3 8 Nordeste 17 Sudoeste 0 -- -- 64
2020-03-21 09:00:00 13.1 7 Sudoeste 16 Oeste 0 -- -- 76
2020-03-21 08:00:00 13.1 10 Sudoeste 15 Sudoeste 0 -- -- 73
2020-03-21 07:00:00 12.9 7 Sudoeste 17 Oeste 0 -- -- 73
2020-03-21 06:00:00 12.8 8 Sudoeste 12 Sudoeste 0 -- -- 73
2020-03-21 05:00:00 12.9 7 Sudoeste 21 Nordeste 0 -- -- 73
2020-03-21 04:00:00 13.1 12 Nordeste 22 Nordeste 0 -- -- 68
2020-03-21 03:00:00 13.5 5 Oeste 16 Este 0 -- -- 74
2020-03-21 02:00:00 13.6 6 Oeste 17 Oeste 0 -- -- 75
2020-03-21 01:00:00 13.2 10 Sudoeste 17 Sudoeste 0 -- -- 85
2020-03-21 00:00:00 13.1 10 Sudoeste 19 Sudoeste 0 -- -- 82
2020-03-20 23:00:00 13.5 9 Sudoeste 15 Sudoeste 0 -- -- 82
2020-03-20 22:00:00 13.6 9 Oeste 14 Sudoeste 0 -- -- 83
2020-03-20 21:00:00 13.8 9 Oeste 18 Sudoeste 0 -- -- 82
2020-03-20 20:00:00 13.7 9 Sudoeste 14 Sudoeste 0 -- -- 82
2020-03-20 19:00:00 14.5 5 Oeste 17 Norte 0 -- -- 78
2020-03-20 18:00:00 14.8 9 Norte 19 Norte 0 -- -- 77
2020-03-20 17:00:00 15.1 12 Nordeste 22 Nordeste 0 -- -- 79
2020-03-20 16:00:00 14.7 12 Norte 27 Norte 0 -- -- 87
2020-03-20 15:00:00 15.5 14 Norte 30 Norte 0.2 -- -- 86
2020-03-20 14:00:00 18.7 9 Norte 25 Nordeste 0 -- -- 65
2020-03-20 13:00:00 18.2 9 Nordeste 21 Este 0 -- -- 67
2020-03-20 12:00:00 18.1 10 Nordeste 23 Nordeste 0 -- -- 65
2020-03-20 11:00:00 17.7 12 Nordeste 24 Nordeste 0 -- -- 76
2020-03-20 10:00:00 15.8 12 Nordeste 19 Nordeste 0 -- -- 86
2020-03-20 09:00:00 14.3 11 Norte 17 Nordeste 0 -- -- 90
2020-03-20 08:00:00 14 4 Noroeste 14 Oeste 0 -- -- 92
2020-03-20 07:00:00 13.8 5 Oeste 12 Noroeste 0 -- -- 92
2020-03-20 06:00:00 13.9 4 Oeste 14 Sudoeste 0.6 -- -- 93
2020-03-20 05:00:00 13.9 8 Oeste 16 Sudoeste 0 -- -- 92
2020-03-20 04:00:00 13.7 8 Oeste 14 Oeste 0 -- -- 93
2020-03-20 03:00:00 13.7 7 Oeste 12 Oeste 0 -- -- 92
2020-03-20 02:00:00 14.2 5 Noroeste 13 Sudoeste 0.6 -- -- 94
2020-03-20 01:00:00 14.3 6 Norte 18 Norte 0 -- -- 94
2020-03-20 00:00:00 14.4 10 Norte 28 Norte 0 -- -- 95
2020-03-19 23:00:00 14.5 15 Norte 28 Norte 0.4 -- -- 96
2020-03-19 22:00:00 14.8 10 Noroeste 18 Noroeste 0 -- -- 92
2020-03-19 21:00:00 14.8 7 Norte 18 Norte 1.2 -- -- 95
2020-03-19 20:00:00 15.3 6 Oeste 18 Norte 0.6 -- -- 85
2020-03-19 19:00:00 15.8 8 Noroeste 16 Norte 0 -- -- 83
2020-03-19 18:00:00 16 9 Norte 23 Norte 0 -- -- 84
2020-03-19 17:00:00 16.4 12 Norte 31 Norte 0 -- -- 85
2020-03-19 16:00:00 16.8 14 Norte 25 Nordeste 0 -- -- 83
2020-03-19 15:00:00 17.1 15 Norte 27 Nordeste 0 -- -- 84
2020-03-19 14:00:00 17.1 13 Norte 33 Norte 0 -- -- 83
2020-03-19 13:00:00 17.1 17 Norte 28 Nordeste 0 -- -- 83
2020-03-19 12:00:00 16.8 13 Norte 26 Norte 0 -- -- 83
2020-03-19 11:00:00 16.3 14 Norte 28 Norte 0 -- -- 83
2020-03-19 10:00:00 15.9 10 Norte 36 Noroeste 0 -- -- 85
2020-03-19 09:00:00 15.6 17 Oeste 31 Noroeste 0 -- -- 78
2020-03-19 08:00:00 14.9 17 Oeste 37 Noroeste 0 -- -- 79
2020-03-19 07:00:00 15.5 16 Oeste 39 Oeste 0 -- -- 65
2020-03-19 06:00:00 14.8 18 Oeste 38 Oeste 0 -- -- 72
2020-03-19 05:00:00 14.3 13 Noroeste 27 Noroeste 0 -- -- 86
2020-03-19 04:00:00 14.1 14 Noroeste 34 Oeste 0 -- -- 86
2020-03-19 03:00:00 14.4 17 Oeste 35 Oeste 0 -- -- 75
2020-03-19 02:00:00 14.1 18 Oeste 31 Oeste 0 -- -- 81
2020-03-19 01:00:00 13.8 19 Noroeste 30 Oeste 0 -- -- 78
2020-03-19 00:00:00 13.8 18 Oeste 28 Noroeste 0 -- -- 79
2020-03-18 23:00:00 13.7 16 Oeste 28 Oeste 0 -- -- 77
2020-03-18 22:00:00 14 13 Norte 32 Norte 0 -- -- 80
2020-03-18 21:00:00 14.2 16 Norte 38 Norte 0 -- -- 81
2020-03-18 20:00:00 14.5 20 Noroeste 39 Oeste 0 -- -- 78
2020-03-18 19:00:00 14.5 17 Norte 35 Noroeste 0 -- -- 77
2020-03-18 18:00:00 15.5 12 Norte 24 Norte 0 -- -- 71
2020-03-18 17:00:00 15.2 13 Norte 25 Norte 0 -- -- 69
2020-03-18 16:00:00 15.4 14 Norte 32 Nordeste 0 -- -- 69
2020-03-18 15:00:00 15.8 20 Norte 35 Norte 0 -- -- 67
2020-03-18 14:00:00 16.9 17 Norte 29 Nordeste 0 -- -- 66
2020-03-18 13:00:00 17.4 12 Nordeste 36 Nordeste 0 -- -- 59
2020-03-18 12:00:00 17.4 10 Norte 28 Nordeste 0 -- -- 62
2020-03-18 11:00:00 16.4 9 Nordeste 22 Nordeste 0 -- -- 65
2020-03-18 10:00:00 15.8 9 Nordeste 23 Nordeste 0 -- -- 66
2020-03-18 09:00:00 14.6 6 Noroeste 15 Noroeste 0 -- -- 77
2020-03-18 08:00:00 13 5 Noroeste 18 Sudoeste 0 -- -- 90
2020-03-18 07:00:00 12.3 9 Oeste 23 Sudoeste 0.2 -- -- 88
2020-03-18 06:00:00 12.3 14 Sudoeste 25 Sudoeste 0.2 -- -- 88
2020-03-18 05:00:00 11.9 13 Norte 26 Norte 0.6 -- -- 93
2020-03-18 04:00:00 12.1 9 Oeste 21 Sudoeste 0.8 -- -- 93
2020-03-18 03:00:00 12.1 11 Oeste 17 Sudoeste 0 -- -- 88
2020-03-18 02:00:00 12.2 8 Oeste 20 Sudoeste 0 -- -- 94
2020-03-18 01:00:00 12.4 14 Sudoeste 26 Sudoeste 0.2 -- -- 85
2020-03-18 00:00:00 12.2 7 Oeste 17 Norte 0.4 -- -- 92
2020-03-17 23:00:00 12.2 9 Oeste 23 Oeste 1.2 -- -- 91
2020-03-17 22:00:00 12.5 13 Sudoeste 33 Norte 0 -- -- 88
2020-03-17 21:00:00 12.9 9 Norte 26 Nordeste 0 -- -- 86
2020-03-17 20:00:00 13 9 Nordeste 20 Nordeste 0 -- -- 88
2020-03-17 19:00:00 13.1 14 Nordeste 22 Nordeste 0 -- -- 90
2020-03-17 18:00:00 13.2 12 Nordeste 26 Nordeste 0 -- -- 90
2020-03-17 17:00:00 13.3 7 Norte 18 Este 1.6 -- -- 93
2020-03-17 16:00:00 13.5 4 Oeste 21 Nordeste 0.8 -- -- 92
2020-03-17 15:00:00 14.4 11 Nordeste 26 Nordeste 0.8 -- -- 92
2020-03-17 14:00:00 15 10 Nordeste 17 Nordeste 0 -- -- 82
2020-03-17 13:00:00 14.9 8 Nordeste 27 Nordeste 0.6 -- -- 91
2020-03-17 12:00:00 13.8 12 Nordeste 29 Nordeste 0.4 -- -- 86
2020-03-17 11:00:00 15.8 8 Nordeste 21 Sudoeste 0 -- -- 73
2020-03-17 10:00:00 13.2 9 Nordeste 27 Nordeste 0 -- -- 82
2020-03-17 09:00:00 12.5 14 Sudoeste 27 Sudoeste 0 -- -- 81
2020-03-17 08:00:00 12.3 8 Nordeste 21 Nordeste 0 -- -- 87
2020-03-17 07:00:00 12.2 10 Oeste 21 Nordeste 0 -- -- 85
2020-03-17 06:00:00 11.8 15 Sudoeste 28 Nordeste 0.2 -- -- 91
2020-03-17 05:00:00 12.4 13 Sudoeste 20 Sudoeste 0 -- -- 86
2020-03-17 04:00:00 11.9 8 Sur 29 Este 1 -- -- 93
2020-03-17 03:00:00 13.4 12 Este 27 Este 0 -- -- 67
2020-03-17 02:00:00 13.5 8 Sudeste 21 Este 0 -- -- 75
2020-03-17 01:00:00 13.5 17 Sudoeste 27 Nordeste 0 -- -- 74
2020-03-17 00:00:00 13.7 18 Nordeste 32 Norte 0 -- -- 76
2020-03-16 23:00:00 13.9 12 Nordeste 31 Este 0 -- -- 72
2020-03-16 22:00:00 14 12 Nordeste 23 Nordeste 0 -- -- 74
2020-03-16 21:00:00 14.2 15 Nordeste 28 Nordeste 0 -- -- 77
2020-03-16 20:00:00 14.2 14 Nordeste 26 Norte 0 -- -- 81
2020-03-16 19:00:00 14.5 10 Norte 23 Nordeste 0 -- -- 80
2020-03-16 18:00:00 15.2 13 Nordeste 28 Nordeste 0 -- -- 79
2020-03-16 17:00:00 15.6 15 Nordeste 26 Nordeste 0 -- -- 78
2020-03-16 16:00:00 16.8 12 Nordeste 24 Norte 0 -- -- 71
2020-03-16 15:00:00 16.5 13 Nordeste 31 Norte 0 -- -- 76
2020-03-16 14:00:00 17.9 12 Nordeste 20 Nordeste 0 -- -- 71
2020-03-16 13:00:00 19.4 11 Este 20 Nordeste 0 -- -- 62
2020-03-16 12:00:00 18.5 14 Nordeste 23 Este 0 -- -- 68
2020-03-16 11:00:00 16.2 5 Norte 14 Norte 0 -- -- 75
2020-03-16 10:00:00 15.2 10 Nordeste 29 Nordeste 0 -- -- 78
2020-03-16 09:00:00 14.7 14 Nordeste 24 Nordeste 0 -- -- 82
2020-03-16 08:00:00 14.1 8 Sudoeste 16 Sudoeste 0 -- -- 77
2020-03-16 07:00:00 13.7 12 Sudoeste 20 Oeste 0 -- -- 82
2020-03-16 06:00:00 13.5 8 Oeste 31 Norte 0 -- -- 88
2020-03-16 05:00:00 13.7 16 Nordeste 29 Norte 0 -- -- 85
2020-03-16 04:00:00 13.7 7 Oeste 15 Noroeste 0 -- -- 81
2020-03-16 03:00:00 14 6 Oeste 13 Sudoeste 0 -- -- 86
2020-03-16 02:00:00 14.1 7 Noroeste 15 Oeste 0 -- -- 82
2020-03-16 01:00:00 14.1 8 Oeste 18 Noroeste 0 -- -- 83
2020-03-16 00:00:00 14.2 10 Norte 25 Nordeste 0 -- -- 79
2020-03-15 23:00:00 14.3 6 Norte 23 Nordeste 0 -- -- 81
2020-03-15 22:00:00 14.4 16 Nordeste 28 Nordeste 0 -- -- 83
2020-03-15 21:00:00 14.4 5 Noroeste 19 Noroeste 0 -- -- 81
2020-03-15 20:00:00 14.3 10 Sudoeste 17 Sudoeste 0 -- -- 79
2020-03-15 19:00:00 14.7 7 Oeste 18 Nordeste 0 -- -- 77
2020-03-15 18:00:00 15.2 13 Nordeste 21 Norte 0 -- -- 74
2020-03-15 17:00:00 15.6 13 Nordeste 23 Nordeste 0 -- -- 75
2020-03-15 16:00:00 16 9 Noroeste 18 Oeste 0 -- -- 73
2020-03-15 15:00:00 14.7 10 Sudoeste 32 Nordeste 0.6 -- -- 89
2020-03-15 14:00:00 16.3 6 Noroeste 23 Nordeste 0 -- -- 73
2020-03-15 13:00:00 16.7 10 Nordeste 18 Nordeste 0 -- -- 73
2020-03-15 12:00:00 15.9 8 Norte 23 Norte 0 -- -- 75
2020-03-15 11:00:00 15.9 11 Norte 28 Nordeste 0 -- -- 78
2020-03-15 10:00:00 13.9 14 Norte 27 Norte 0.2 -- -- 89
2020-03-15 09:00:00 12.6 6 Noroeste 19 Oeste 2.2 -- -- 89
2020-03-15 08:00:00 12.7 11 Oeste 22 Oeste 0 -- -- 83
2020-03-15 07:00:00 12.3 17 Sudoeste 23 Sudoeste 0.2 -- -- 87
2020-03-15 06:00:00 12.3 7 Noroeste 22 Noroeste 0.2 -- -- 95
2020-03-15 05:00:00 12.2 10 Oeste 24 Norte 2 -- -- 89
2020-03-15 04:00:00 12.5 12 Oeste 18 Sudoeste 0 -- -- 86
2020-03-15 03:00:00 12.8 12 Noroeste 24 Norte 1 -- -- 93
2020-03-15 02:00:00 13 6 Norte 21 Nordeste 0.6 -- -- 94
2020-03-15 01:00:00 13.6 9 Norte 15 Norte 0 -- -- 78
2020-03-15 00:00:00 13.8 6 Noroeste 14 Noroeste 0 -- -- 79
2020-03-14 23:00:00 14.5 10 Norte 16 Norte 0 -- -- 81
2020-03-14 22:00:00 14.7 6 Oeste 14 Oeste 0 -- -- 77
2020-03-14 21:00:00 14.5 8 Oeste 14 Noroeste 0 -- -- 69
2020-03-14 20:00:00 14.6 8 Oeste 13 Oeste 0 -- -- 61
2020-03-14 19:00:00 14.6 4 Oeste 15 Norte 0 -- -- 79
2020-03-14 18:00:00 16 11 Nordeste 17 Norte 0 -- -- 75
2020-03-14 17:00:00 16.1 10 Nordeste 19 Nordeste 0 -- -- 74
2020-03-14 16:00:00 17.1 11 Nordeste 23 Este 0 -- -- 73
2020-03-14 15:00:00 17.2 11 Este 24 Este 0 -- -- 71
2020-03-14 14:00:00 19.4 14 Este 27 Este 0 -- -- 64
2020-03-14 13:00:00 19.3 13 Nordeste 21 Este 0 -- -- 65
2020-03-14 12:00:00 17.6 11 Nordeste 20 Este 0 -- -- 70
2020-03-14 11:00:00 17.2 8 Este 18 Nordeste 0 -- -- 74
2020-03-14 10:00:00 15.9 14 Nordeste 20 Nordeste 0 -- -- 82
2020-03-14 09:00:00 14.8 5 Sur 23 Nordeste 0 -- -- 87
2020-03-14 08:00:00 14.6 6 Nordeste 15 Este 0 -- -- 87
2020-03-14 07:00:00 14.6 4 Sudeste 14 Este 0 -- -- 85
2020-03-14 06:00:00 14.7 10 Sudoeste 15 Sudoeste 0 -- -- 86
2020-03-14 05:00:00 14.7 7 Este 18 Este 0 -- -- 86
2020-03-14 04:00:00 14.8 12 Este 18 Este 0 -- -- 90
2020-03-14 03:00:00 14.9 11 Este 19 Este 0 -- -- 87
2020-03-14 02:00:00 15.1 6 Este 13 Sudeste 0 -- -- 85
2020-03-14 01:00:00 15.2 6 Sudeste 17 Este 0 -- -- 85
2020-03-14 00:00:00 15.2 6 Sudeste 12 Sudoeste 0 -- -- 85
2020-03-13 23:00:00 15.2 6 Sur 14 Oeste 0 -- -- 83
2020-03-13 22:00:00 15.4 9 Sudeste 14 Sudeste 0 -- -- 81
2020-03-13 21:00:00 15.4 7 Este 20 Este 0 -- -- 84
2020-03-13 20:00:00 15.6 6 Sudeste 18 Este 0 -- -- 83
2020-03-13 19:00:00 15.7 9 Sudeste 23 Este 0 -- -- 81
2020-03-13 18:00:00 16.2 12 Este 19 Este 0 -- -- 81
2020-03-13 17:00:00 17.1 14 Este 21 Este 0 -- -- 77
2020-03-13 16:00:00 17.6 14 Este 23 Este 0 -- -- 76
2020-03-13 15:00:00 18 15 Este 26 Este 0 -- -- 75
2020-03-13 14:00:00 16.9 10 Este 21 Este 0 -- -- 78
2020-03-13 13:00:00 16.9 9 Sudeste 22 Este 0 -- -- 79
2020-03-13 12:00:00 16.6 11 Este 21 Este 0 -- -- 78
2020-03-13 11:00:00 16.6 10 Sur 19 Sudeste 0 -- -- 74
2020-03-13 10:00:00 15.9 9 Sudeste 17 Sur 0 -- -- 78
2020-03-13 09:00:00 15.4 8 Sur 14 Sur 0 -- -- 80
2020-03-13 08:00:00 14.9 8 Sudeste 16 Sudeste 0 -- -- 81
2020-03-13 07:00:00 14.8 6 Sur 14 Sudeste 0 -- -- 82
2020-03-13 06:00:00 14.9 7 Sur 17 Sur 0 -- -- 83
2020-03-13 05:00:00 14.9 6 Sur 15 Sudoeste 0 -- -- 83
2020-03-13 04:00:00 14.8 8 Sur 18 Sudoeste 0 -- -- 85
2020-03-13 03:00:00 14.7 10 Sudoeste 18 Sudoeste 0 -- -- 85
2020-03-13 02:00:00 14.7 12 Sudoeste 14 Sudoeste 0 -- -- 85
2020-03-13 01:00:00 14.8 12 Sudoeste 21 Sudoeste 0 -- -- 84
2020-03-13 00:00:00 15.1 10 Sudoeste 16 Sudoeste 0 -- -- 86
2020-03-12 23:00:00 14.9 9 Sudoeste 15 Sudoeste 0 -- -- 87
2020-03-12 22:00:00 14.9 9 Sudoeste 11 Sudoeste 0 -- -- 89
2020-03-12 21:00:00 14.9 6 Sudoeste 12 Sudoeste 0 -- -- 87
2020-03-12 20:00:00 15.7 7 Sudoeste 17 Sur 0 -- -- 85
2020-03-12 19:00:00 16.3 9 Este 17 Este 0 -- -- 83
2020-03-12 18:00:00 17 8 Este 18 Este 0 -- -- 82
2020-03-12 17:00:00 18.1 12 Este 19 Este 0 -- -- 79
2020-03-12 16:00:00 20 10 Este 20 Este 0 -- -- 72
2020-03-12 15:00:00 20.4 12 Este 23 Este 0 -- -- 71
2020-03-12 14:00:00 20.9 12 Este 22 Este 0 -- -- 70
2020-03-12 13:00:00 19.6 9 Este 22 Este 0 -- -- 73
2020-03-12 12:00:00 19.9 10 Este 20 Este 0 -- -- 73
2020-03-12 11:00:00 20.3 11 Este 20 Este 0 -- -- 73
2020-03-12 10:00:00 18 8 Este 14 Este 0 -- -- 81
2020-03-12 09:00:00 16 9 Sudeste 15 Sur 0 -- -- 87
2020-03-12 08:00:00 14.1 8 Sudoeste 19 Sudoeste 0 -- -- 94
2020-03-12 07:00:00 12.6 9 Sur 18 Sudoeste 0 -- -- 77
2020-03-12 06:00:00 13.5 10 Sudoeste 18 Sudoeste 0 -- -- 93
2020-03-12 05:00:00 13.7 10 Sudoeste 18 Sudoeste 0 -- -- 95
2020-03-12 04:00:00 13 6 Sur 10 Sudoeste 0 -- -- 94
2020-03-12 03:00:00 13.8 6 Sudoeste 14 Sudoeste 0 -- -- 94
2020-03-12 02:00:00 14 8 Sudoeste 14 Sudoeste 0 -- -- 93
2020-03-12 01:00:00 13.8 9 Sudoeste 13 Sudoeste 0 -- -- 93
2020-03-12 00:00:00 14.2 8 Sudoeste 12 Sudoeste 0 -- -- 94
2020-03-11 23:00:00 14.4 6 Sudoeste 10 Sudoeste 0 -- -- 95
2020-03-11 22:00:00 14 7 Sudoeste 9 Sudoeste 0 -- -- 93
2020-03-11 21:00:00 14.6 5 Sudoeste 10 Sudoeste 0 -- -- 94
2020-03-11 20:00:00 14.7 5 Sudoeste 9 Sudoeste 0 -- -- 90
2020-03-11 19:00:00 16.3 6 Sur 13 Sudeste 0 -- -- 89
2020-03-11 18:00:00 18.4 8 Sudeste 15 Sudeste 0 -- -- 80
2020-03-11 17:00:00 19.4 8 Sudeste 18 Nordeste 0 -- -- 76
2020-03-11 16:00:00 20.6 9 Sudeste 23 Este 0 -- -- 72
2020-03-11 15:00:00 20.9 11 Este 21 Nordeste 0 -- -- 70
2020-03-11 14:00:00 21.8 10 Este 21 Este 0 -- -- 64
2020-03-11 13:00:00 20.6 9 Sudeste 18 Sudeste 0 -- -- 69
2020-03-11 12:00:00 20.2 11 Este 22 Este 0 -- -- 72
2020-03-11 11:00:00 19.1 10 Este 19 Sudeste 0 -- -- 75
2020-03-11 10:00:00 17.6 11 Sudeste 17 Sudeste 0 -- -- 80
2020-03-11 09:00:00 15.7 9 Sur 20 Sudoeste 0 -- -- 87
2020-03-11 08:00:00 14.2 11 Sudoeste 16 Sudoeste 0 -- -- 93
2020-03-11 07:00:00 14.1 10 Sudoeste 17 Sudoeste 0 -- -- 93
2020-03-11 06:00:00 13.8 11 Sur 18 Sudoeste 0 -- -- 91
2020-03-11 05:00:00 14.1 13 Sudoeste 22 Sudoeste 0 -- -- 91
2020-03-11 04:00:00 14.1 10 Sur 23 Sudoeste 0 -- -- 93
2020-03-11 03:00:00 14 13 Sudoeste 22 Sudoeste 0 -- -- 87
2020-03-11 02:00:00 14 10 Sudoeste 17 Sudoeste 0 -- -- 91
2020-03-11 01:00:00 14.2 10 Sudoeste 21 Sudoeste 0 -- -- 92
2020-03-11 00:00:00 14 11 Sur 15 Sudoeste 0 -- -- 89
2020-03-10 23:00:00 14.4 8 Sudoeste 16 Sudoeste 0 -- -- 92
2020-03-10 22:00:00 14.7 7 Sudoeste 17 Sudoeste 0 -- -- 92
2020-03-10 21:00:00 14.9 8 Sur 17 Sudoeste 0 -- -- 93
2020-03-10 20:00:00 15 11 Sudoeste 17 Sudoeste 0 -- -- 91
2020-03-10 19:00:00 15.6 8 Sudoeste 14 Sur 0 -- -- 88
2020-03-10 18:00:00 17.8 9 Sur 16 Sudeste 0 -- -- 80
2020-03-10 17:00:00 19.3 8 Sudeste 21 Nordeste 0 -- -- 74
2020-03-10 16:00:00 19.6 10 Sudeste 26 Este 0 -- -- 74
2020-03-10 15:00:00 20 10 Este 24 Este 0 -- -- 73
2020-03-10 14:00:00 21 12 Este 22 Este 0 -- -- 67
2020-03-10 13:00:00 19.9 9 Sudeste 22 Este 0 -- -- 74
2020-03-10 12:00:00 20.2 12 Este 20 Este 0 -- -- 72
2020-03-10 11:00:00 19 8 Sudeste 18 Sudeste 0 -- -- 76
2020-03-10 10:00:00 18.1 8 Sudeste 15 Sudeste 0 -- -- 79
2020-03-10 09:00:00 15.8 10 Sur 15 Sudeste 0 -- -- 86
2020-03-10 08:00:00 14.6 9 Sur 16 Sudoeste 0 -- -- 64
2020-03-10 07:00:00 15.5 10 Sudoeste 17 Sur 0 -- -- 42
2020-03-10 06:00:00 15.4 9 Sudoeste 17 Sudoeste 0 -- -- 45
2020-03-10 05:00:00 15.6 14 Sudoeste 20 Sudoeste 0 -- -- 45
2020-03-10 04:00:00 15.1 12 Sudoeste 17 Sudoeste 0 -- -- 53
2020-03-10 03:00:00 14 7 Sur 23 Sudoeste 0 -- -- 82
2020-03-10 02:00:00 14.5 12 Sudoeste 20 Sudoeste 0 -- -- 96
2020-03-10 01:00:00 14.5 10 Sudoeste 17 Sudoeste 0 -- -- 92
2020-03-10 00:00:00 14.6 6 Sur 17 Sudoeste 0 -- -- 93
2020-03-09 23:00:00 14.5 7 Sur 19 Sudoeste 0 -- -- 92
2020-03-09 22:00:00 14.6 8 Sudoeste 17 Sudoeste 0 -- -- 90
2020-03-09 21:00:00 15.3 10 Sudoeste 19 Sur 0 -- -- 87
2020-03-09 20:00:00 15.8 8 Sur 16 Sudeste 0 -- -- 86
2020-03-09 19:00:00 16.1 9 Sudeste 15 Sudeste 0 -- -- 88
2020-03-09 18:00:00 16.7 10 Sudeste 20 Este 0 -- -- 86
2020-03-09 17:00:00 17.2 11 Sudeste 24 Este 0 -- -- 84
2020-03-09 16:00:00 18.1 11 Este 21 Este 0 -- -- 79
2020-03-09 15:00:00 18.8 10 Este 25 Este 0 -- -- 76
2020-03-09 14:00:00 20 15 Este 25 Este 0 -- -- 73
2020-03-09 13:00:00 20 11 Sudeste 23 Este 0 -- -- 70
2020-03-09 12:00:00 19.5 13 Sudeste 23 Este 0 -- -- 71
2020-03-09 11:00:00 18.9 10 Sudeste 23 Este 0 -- -- 72
2020-03-09 10:00:00 18 12 Este 21 Este 0 -- -- 75
2020-03-09 09:00:00 15.9 6 Sur 17 Sudoeste 0 -- -- 79
2020-03-09 08:00:00 14.6 11 Sudoeste 17 Sudoeste 0 -- -- 83
2020-03-09 07:00:00 14.3 10 Sudoeste 15 Sudoeste 0 -- -- 85
2020-03-09 06:00:00 13.8 12 Sudoeste 15 Sudoeste 0 -- -- 89
2020-03-09 05:00:00 13.7 5 Sur 18 Sur 0 -- -- 85
2020-03-09 04:00:00 14.7 14 Sudoeste 21 Sudoeste 0 -- -- 68
2020-03-09 03:00:00 14 11 Sudoeste 18 Sudoeste 0 -- -- 83
2020-03-09 02:00:00 14.2 11 Sudoeste 21 Sudoeste 0 -- -- 87
2020-03-09 01:00:00 15.3 10 Sudoeste 17 Sudoeste 0 -- -- 86
2020-03-09 00:00:00 15.5 10 Sudoeste 17 Sudoeste 0 -- -- 85
2020-03-08 23:00:00 15.3 9 Sudoeste 15 Sur 0 -- -- 87
2020-03-08 22:00:00 15.6 9 Sudoeste 21 Sudoeste 0 -- -- 85
2020-03-08 21:00:00 15.9 8 Sudoeste 15 Este 0 -- -- 85
2020-03-08 20:00:00 16.2 7 Sudeste 15 Sudeste 0 -- -- 89
2020-03-08 19:00:00 16.4 8 Sudeste 16 Este 0 -- -- 87
2020-03-08 18:00:00 16.9 10 Sudeste 19 Este 0 -- -- 83
2020-03-08 17:00:00 17.3 9 Este 23 Este 0 -- -- 81
2020-03-08 16:00:00 19.1 14 Este 26 Este 0 -- -- 74
2020-03-08 15:00:00 19.3 16 Este 31 Este 0 -- -- 72
2020-03-08 14:00:00 19.1 15 Este 31 Este 0 -- -- 72
2020-03-08 13:00:00 19.7 19 Este 31 Este 0 -- -- 69
2020-03-08 12:00:00 19.3 15 Este 27 Este 0 -- -- 69
2020-03-08 11:00:00 16.9 10 Sudeste 21 Sudeste 0 -- -- 77
2020-03-08 10:00:00 16.2 9 Este 15 Sudeste 0 -- -- 79
2020-03-08 09:00:00 15.6 6 Sur 20 Sudoeste 0 -- -- 79
2020-03-08 08:00:00 14.9 11 Sudoeste 18 Sudoeste 0 -- -- 78
2020-03-08 07:00:00 14.9 8 Sudoeste 19 Sur 0 -- -- 78
2020-03-08 06:00:00 14.8 7 Sudoeste 15 Sudoeste 0 -- -- 80
2020-03-08 05:00:00 14.8 6 Sur 11 Sudoeste 0 -- -- 81
2020-03-08 04:00:00 14.9 3 Sudeste 12 Sudoeste 0 -- -- 80
2020-03-08 03:00:00 15 10 Sudoeste 17 Sudoeste 0 -- -- 79
2020-03-08 02:00:00 14.9 7 Sur 17 Sudeste 0 -- -- 80
2020-03-08 01:00:00 15 8 Sur 18 Sudoeste 0 -- -- 79
2020-03-08 00:00:00 15 10 Sudeste 24 Sudoeste 0 -- -- 78
2020-03-07 23:00:00 15 8 Sur 17 Sudoeste 0 -- -- 78
2020-03-07 22:00:00 15 8 Sudeste 18 Este 0 -- -- 78
2020-03-07 21:00:00 15.1 5 Sur 23 Este 0 -- -- 77
2020-03-07 20:00:00 15.2 8 Sudeste 19 Este 0 -- -- 75
2020-03-07 19:00:00 15.4 8 Sudeste 14 Sudeste 0 -- -- 76
2020-03-07 18:00:00 16 10 Sudeste 18 Este 0 -- -- 77
2020-03-07 17:00:00 16.4 13 Este 26 Este 0 -- -- 72
2020-03-07 16:00:00 16.8 16 Este 26 Este 0 -- -- 71
2020-03-07 15:00:00 17.7 14 Este 35 Este 0 -- -- 66
2020-03-07 14:00:00 18.8 18 Este 34 Nordeste 0 -- -- 61
2020-03-07 13:00:00 19.9 18 Este 28 Este 0 -- -- 65
2020-03-07 12:00:00 16.8 17 Este 31 Este 0 -- -- 71
2020-03-07 11:00:00 15.7 11 Sudeste 22 Sudoeste 0 -- -- 73
2020-03-07 10:00:00 14.4 10 Sudoeste 25 Este 0 -- -- 83
2020-03-07 09:00:00 14.6 13 Este 26 Este 0 -- -- 73
2020-03-07 08:00:00 14.1 9 Sur 24 Sudoeste 0 -- -- 82
2020-03-07 07:00:00 14.2 11 Sudeste 32 Sudoeste 0 -- -- 83
2020-03-07 06:00:00 14.3 9 Sudoeste 17 Sur 0 -- -- 74
2020-03-07 05:00:00 14.2 10 Sudeste 22 Sudeste 0 -- -- 78
2020-03-07 04:00:00 14.3 14 Sudeste 24 Sur 0 -- -- 78
2020-03-07 03:00:00 14.6 13 Sudoeste 39 Sudoeste 0 -- -- 73
2020-03-07 02:00:00 14.1 14 Sudoeste 26 Sudoeste 0 -- -- 72
2020-03-07 01:00:00 14.1 14 Sudeste 26 Sur 0 -- -- 74
2020-03-07 00:00:00 14.2 13 Sudeste 29 Sudeste 0 -- -- 73
2020-03-06 23:00:00 14.5 17 Sudeste 31 Sudoeste 0 -- -- 76
2020-03-06 22:00:00 14.5 14 Sur 29 Sudoeste 0 -- -- 74
2020-03-06 21:00:00 14.3 12 Sur 27 Sudoeste 0 -- -- 74
2020-03-06 20:00:00 14.3 11 Sur 28 Sudoeste 0 -- -- 77
2020-03-06 19:00:00 14.5 14 Sudeste 27 Este 0 -- -- 76
2020-03-06 18:00:00 14.7 14 Sudeste 28 Sudeste 0 -- -- 75
2020-03-06 17:00:00 14.5 10 Sudeste 35 Este 0 -- -- 88
2020-03-06 16:00:00 16.1 14 Sur 28 Oeste 0 -- -- 72
2020-03-06 15:00:00 16.2 15 Sur 29 Sudeste 0 -- -- 74
2020-03-06 14:00:00 16.1 11 Sudeste 30 Este 0 -- -- 71
2020-03-06 13:00:00 15.8 14 Este 25 Sur 0 -- -- 73
2020-03-06 12:00:00 15.2 14 Sudeste 26 Sudeste 0 -- -- 79
2020-03-06 11:00:00 14.8 19 Sudoeste 30 Sudoeste 0 -- -- 73
2020-03-06 10:00:00 14.4 18 Este 30 Este 0 -- -- 81
2020-03-06 09:00:00 13.8 20 Este 31 Este 0 -- -- 84
2020-03-06 08:00:00 13.6 14 Sudeste 24 Este 0 -- -- 87
2020-03-06 07:00:00 13.7 10 Sudeste 28 Sudeste 0 -- -- 87
2020-03-06 06:00:00 13.7 12 Sudeste 29 Este 0.2 -- -- 97
2020-03-06 05:00:00 14.5 18 Este 37 Este 0.2 -- -- 98
2020-03-06 04:00:00 14.7 12 Sur 28 Sur 1.4 -- -- 96
2020-03-06 03:00:00 14.6 11 Sur 26 Sudeste 1.8 -- -- 98
2020-03-06 02:00:00 14.7 12 Sur 37 Este 2.2 -- -- 97
2020-03-06 01:00:00 15.6 8 Sur 19 Sur 0.2 -- -- 93
2020-03-06 00:00:00 16.1 13 Sudoeste 22 Sudoeste 0 -- -- 83
2020-03-05 23:00:00 15.9 10 Sur 25 Sudoeste 0 -- -- 88
2020-03-05 22:00:00 15.8 13 Sudoeste 29 Nordeste 0 -- -- 84
2020-03-05 21:00:00 16.3 13 Este 30 Nordeste 0 -- -- 79
2020-03-05 20:00:00 16.1 10 Sur 26 Sudoeste 0 -- -- 79
2020-03-05 19:00:00 16.2 10 Este 18 Este 0 -- -- 84
2020-03-05 18:00:00 16.9 9 Este 22 Este 0 -- -- 80
2020-03-05 17:00:00 17.8 9 Este 24 Este 0 -- -- 74
2020-03-05 16:00:00 19.4 14 Este 26 Este 0 -- -- 72
2020-03-05 15:00:00 19.2 15 Este 24 Este 0 -- -- 73
2020-03-05 14:00:00 18.7 17 Este 25 Nordeste 0 -- -- 76
2020-03-05 13:00:00 17.9 15 Este 23 Nordeste 0 -- -- 79
2020-03-05 12:00:00 17.1 11 Este 19 Este 0 -- -- 83
2020-03-05 11:00:00 17.3 9 Este 19 Este 0 -- -- 79
2020-03-05 10:00:00 17 10 Este 20 Este 0 -- -- 82
2020-03-05 09:00:00 15.8 7 Sudoeste 16 Sudoeste 0 -- -- 83
2020-03-05 08:00:00 15.1 12 Sudoeste 17 Sudoeste 0 -- -- 86
2020-03-05 07:00:00 15.4 5 Sudoeste 10 Sudoeste 0 -- -- 88
2020-03-05 06:00:00 15.4 5 Sudeste 14 Este 0 -- -- 88
2020-03-05 05:00:00 15.3 9 Este 14 Este 0 -- -- 90
2020-03-05 04:00:00 15.4 4 Nordeste 11 Nordeste 0 -- -- 92
2020-03-05 03:00:00 15.5 7 Nordeste 13 Este 0 -- -- 93
2020-03-05 02:00:00 15.7 6 Nordeste 10 Este 0 -- -- 90
2020-03-05 01:00:00 15.9 5 Este 14 Sudeste 0 -- -- 91
2020-03-05 00:00:00 15.9 5 Sur 10 Sudoeste 0 -- -- 89
2020-03-04 23:00:00 15.9 5 Sudoeste 14 Sudoeste 0 -- -- 89
2020-03-04 22:00:00 15.9 4 Sudeste 13 Sudoeste 0 -- -- 90
2020-03-04 21:00:00 15.6 5 Sudoeste 8 Sudoeste 0 -- -- 89
2020-03-04 20:00:00 16 3 Sudeste 10 Nordeste 0 -- -- 85
2020-03-04 19:00:00 16.5 5 Norte 10 Este 0 -- -- 87
2020-03-04 18:00:00 17.8 6 Este 18 Este 0 -- -- 84
2020-03-04 17:00:00 19.8 9 Este 16 Este 0 -- -- 75
2020-03-04 16:00:00 20.4 9 Sudeste 17 Sudeste 0 -- -- 72
2020-03-04 15:00:00 20.6 12 Sur 19 Sudeste 0 -- -- 71
2020-03-04 14:00:00 20.2 10 Sudeste 24 Sudeste 0 -- -- 73
2020-03-04 13:00:00 20 12 Este 26 Este 0 -- -- 72
2020-03-04 12:00:00 19.9 11 Sudeste 22 Este 0 -- -- 72
2020-03-04 11:00:00 19.3 9 Sudeste 17 Este 0 -- -- 73
2020-03-04 10:00:00 18.4 9 Este 16 Este 0 -- -- 77
2020-03-04 09:00:00 16.6 6 Sudeste 12 Sudoeste 0 -- -- 83
2020-03-04 08:00:00 14 9 Sudoeste 15 Sudoeste 0 -- -- 92
2020-03-04 07:00:00 13.6 9 Sudoeste 14 Sudoeste 0 -- -- 91
2020-03-04 06:00:00 13.6 11 Sudoeste 17 Sudoeste 0 -- -- 89
2020-03-04 05:00:00 14 11 Sudoeste 16 Sudoeste 0 -- -- 90
2020-03-04 04:00:00 14.4 11 Sudoeste 19 Sudoeste 0 -- -- 90
2020-03-04 03:00:00 14.4 9 Sudoeste 19 Sur 0 -- -- 91
2020-03-04 02:00:00 14.9 13 Sur 24 Sudeste 0 -- -- 90
2020-03-04 01:00:00 14.6 10 Sur 22 Sudoeste 0 -- -- 88
2020-03-04 00:00:00 15.2 11 Sudoeste 22 Sudoeste 0 -- -- 87
2020-03-03 23:00:00 15.6 9 Sur 19 Sudoeste 0 -- -- 86
2020-03-03 22:00:00 15.7 7 Sudoeste 21 Sudoeste 0 -- -- 85
2020-03-03 21:00:00 15.8 7 Sur 18 Sudeste 0 -- -- 84
2020-03-03 20:00:00 15.8 10 Sudeste 21 Sudeste 0 -- -- 84
2020-03-03 19:00:00 16.1 10 Sudeste 23 Sudeste 0 -- -- 82
2020-03-03 18:00:00 16.9 10 Sudeste 24 Este 0 -- -- 81
2020-03-03 17:00:00 17.5 10 Sudeste 24 Este 0 -- -- 78
2020-03-03 16:00:00 18.8 13 Este 24 Este 0 -- -- 73
2020-03-03 15:00:00 20 14 Este 28 Este 0 -- -- 66
2020-03-03 14:00:00 18.9 12 Este 27 Este 0 -- -- 70
2020-03-03 13:00:00 19.6 15 Este 28 Este 0 -- -- 67
2020-03-03 12:00:00 18.6 13 Este 26 Este 0 -- -- 72
2020-03-03 11:00:00 17.5 13 Este 24 Este 0 -- -- 76
2020-03-03 10:00:00 16.5 11 Este 20 Este 0 -- -- 78
2020-03-03 09:00:00 15.7 6 Sudeste 14 Sudoeste 0 -- -- 83
2020-03-03 08:00:00 15.3 9 Sudoeste 20 Sudoeste 0 -- -- 84
2020-03-03 07:00:00 14.7 8 Sudoeste 19 Sudoeste 0 -- -- 88
2020-03-03 06:00:00 14.3 11 Sudoeste 17 Sudoeste 0 -- -- 85
2020-03-03 05:00:00 14.9 8 Sur 18 Sur 0 -- -- 89
2020-03-03 04:00:00 14.9 12 Sur 20 Sudeste 0 -- -- 83
2020-03-03 03:00:00 15 10 Sur 21 Sur 0 -- -- 82
2020-03-03 02:00:00 15 10 Sudoeste 21 Sudoeste 0 -- -- 79
2020-03-03 01:00:00 14.9 8 Sudoeste 22 Sur 0 -- -- 77
2020-03-03 00:00:00 14.6 14 Sudoeste 17 Sudoeste 0 -- -- 77
2020-03-02 23:00:00 14.6 10 Sudoeste 15 Sudoeste 0 -- -- 80
2020-03-02 22:00:00 15.2 10 Sudoeste 20 Sudoeste 0 -- -- 77
2020-03-02 21:00:00 15.5 15 Sudoeste 20 Sudoeste 0 -- -- 77
2020-03-02 20:00:00 15.7 6 Sur 18 Sudoeste 0 -- -- 78
2020-03-02 19:00:00 16.1 8 Sudoeste 14 Este 0 -- -- 77
2020-03-02 18:00:00 18.1 6 Sudoeste 20 Este 0 -- -- 67
2020-03-02 17:00:00 19 11 Nordeste 20 Nordeste 0 -- -- 64
2020-03-02 16:00:00 19.7 8 Nordeste 16 Nordeste 0 -- -- 65
2020-03-02 15:00:00 19.3 12 Nordeste 22 Nordeste 0 -- -- 73
2020-03-02 14:00:00 20.3 13 Nordeste 22 Nordeste 0 -- -- 62
2020-03-02 13:00:00 20.3 14 Nordeste 21 Nordeste 0 -- -- 61
2020-03-02 12:00:00 19.9 12 Nordeste 19 Nordeste 0 -- -- 68
2020-03-02 11:00:00 19.7 11 Nordeste 15 Nordeste 0 -- -- 62
2020-03-02 10:00:00 18.8 10 Nordeste 15 Norte 0 -- -- 67
2020-03-02 09:00:00 16.8 12 Norte 17 Norte 0 -- -- 78
2020-03-02 08:00:00 14.4 12 Oeste 18 Sudoeste 0 -- -- 77
2020-03-02 07:00:00 14.4 11 Sudoeste 17 Oeste 0 -- -- 78
2020-03-02 06:00:00 14.5 12 Oeste 17 Oeste 0 -- -- 76
2020-03-02 05:00:00 14.8 13 Sudoeste 17 Sudoeste 0 -- -- 79
2020-03-02 04:00:00 15.2 10 Oeste 19 Noroeste 0 -- -- 80
2020-03-02 03:00:00 15.2 9 Noroeste 22 Oeste 0 -- -- 82
2020-03-02 02:00:00 15.2 9 Oeste 21 Oeste 0 -- -- 83
2020-03-02 01:00:00 15.2 9 Noroeste 26 Noroeste 0 -- -- 83
2020-03-02 00:00:00 15.1 12 Oeste 19 Oeste 0 -- -- 84
2020-03-01 23:00:00 15.1 6 Noroeste 24 Oeste 0 -- -- 85
2020-03-01 22:00:00 15.3 11 Oeste 20 Oeste 0 -- -- 84
2020-03-01 21:00:00 15.1 8 Oeste 15 Oeste 0 -- -- 86
2020-03-01 20:00:00 14.7 7 Oeste 10 Oeste 0 -- -- 86
2020-03-01 19:00:00 15.4 3 Sudoeste 8 Nordeste 0 -- -- 85
2020-03-01 18:00:00 16.2 5 Nordeste 14 Nordeste 0 -- -- 82
2020-03-01 17:00:00 16.5 9 Norte 21 Nordeste 0 -- -- 82
2020-03-01 16:00:00 17.5 12 Nordeste 18 Nordeste 0 -- -- 77
2020-03-01 15:00:00 18.9 9 Nordeste 20 Nordeste 0 -- -- 74
2020-03-01 14:00:00 18.7 9 Nordeste 19 Este 0 -- -- 74
2020-03-01 13:00:00 19.7 6 Este 17 Este 0 -- -- 68
2020-03-01 12:00:00 19.7 8 Este 18 Nordeste 0 -- -- 69
2020-03-01 11:00:00 18.8 11 Este 20 Este 0 -- -- 72
2020-03-01 10:00:00 16.9 6 Sudeste 14 Este 0 -- -- 79
2020-03-01 09:00:00 14.7 4 Sudoeste 12 Sudoeste 0 -- -- 86
2020-03-01 08:00:00 14 4 Oeste 10 Oeste 0 -- -- 90
2020-03-01 07:00:00 13.6 5 Oeste 10 Sudoeste 0 -- -- 92
2020-03-01 06:00:00 13.4 3 Sudoeste 12 Sudoeste 0 -- -- 95
2020-03-01 05:00:00 13.2 5 Sudoeste 9 Sudoeste 0 -- -- 95
2020-03-01 04:00:00 13 7 Sudoeste 10 Sudoeste 0 -- -- 87
2020-03-01 03:00:00 14.1 5 Sudoeste 8 Sudoeste 0 -- -- 94
2020-03-01 02:00:00 13.7 3 Sudoeste 7 Sudoeste 0 -- -- 95
2020-03-01 01:00:00 14 6 Sudoeste 11 Sur 0 -- -- 94
2020-03-01 00:00:00 14 6 Sur 15 Sur 0 -- -- 88
2020-02-29 23:00:00 14.3 7 Sudoeste 12 Sudoeste 0 -- -- 93
2020-02-29 22:00:00 13.9 9 Sudoeste 12 Sudoeste 0 -- -- 91
2020-02-29 21:00:00 14.8 5 Sudoeste 7 Sudoeste 0 -- -- 90
2020-02-29 20:00:00 14.4 4 Sudoeste 8 Este 0 -- -- 90
2020-02-29 19:00:00 15.9 4 Este 10 Este 0 -- -- 83
2020-02-29 18:00:00 16.9 6 Este 14 Este 0 -- -- 79
2020-02-29 17:00:00 17.4 6 Nordeste 15 Este 0 -- -- 78
2020-02-29 16:00:00 18.6 11 Este 23 Este 0 -- -- 74
2020-02-29 15:00:00 19.1 14 Este 23 Este 0 -- -- 72
2020-02-29 14:00:00 19.9 14 Este 24 Este 0 -- -- 70
2020-02-29 13:00:00 18.9 12 Este 24 Este 0 -- -- 75
2020-02-29 12:00:00 18.5 11 Este 22 Este 0 -- -- 77
2020-02-29 11:00:00 17.9 9 Este 18 Este 0 -- -- 79
2020-02-29 10:00:00 16.3 7 Sur 12 Sur 0 -- -- 85
2020-02-29 09:00:00 15.2 6 Sudeste 10 Sudoeste 0 -- -- 88
2020-02-29 08:00:00 13.6 6 Sudoeste 13 Sudoeste 0 -- -- 83
2020-02-29 07:00:00 13.8 8 Sudoeste 14 Sudoeste 0 -- -- 91
2020-02-29 06:00:00 13.5 6 Sudoeste 17 Sudoeste 0 -- -- 89
2020-02-29 05:00:00 13.4 8 Sudoeste 13 Sudoeste 0 -- -- 91
2020-02-29 04:00:00 13 6 Sudoeste 10 Sudoeste 0 -- -- 93
2020-02-29 03:00:00 13.1 5 Sudoeste 9 Sudoeste 0 -- -- 93
2020-02-29 02:00:00 13.2 7 Sudoeste 9 Sudoeste 0 -- -- 92
2020-02-29 01:00:00 13.3 5 Oeste 10 Oeste 0 -- -- 88
2020-02-29 00:00:00 13.3 7 Oeste 18 Noroeste 0 -- -- 86